sensor_id;sensor_type;location;lat;lon;timestamp;pressure;altitude;pressure_sealevel;temperature
18782;BMP180;9519;51.890;8.970;2022-12-29T00:02:53;97975.00;;;9.70
18782;BMP180;9519;51.890;8.970;2022-12-29T00:07:55;97974.00;;;9.60
18782;BMP180;9519;51.890;8.970;2022-12-29T00:12:58;97959.00;;;9.50
18782;BMP180;9519;51.890;8.970;2022-12-29T00:18:18;97982.00;;;9.50
18782;BMP180;9519;51.890;8.970;2022-12-29T00:23:21;97981.00;;;9.50
18782;BMP180;9519;51.890;8.970;2022-12-29T00:28:42;97987.00;;;9.50
18782;BMP180;9519;51.890;8.970;2022-12-29T00:34:02;97955.00;;;9.50
18782;BMP180;9519;51.890;8.970;2022-12-29T00:39:21;97953.00;;;9.60
18782;BMP180;9519;51.890;8.970;2022-12-29T00:44:57;97931.00;;;9.60
18782;BMP180;9519;51.890;8.970;2022-12-29T00:49:59;97946.00;;;9.60
18782;BMP180;9519;51.890;8.970;2022-12-29T00:55:01;97955.00;;;9.60
18782;BMP180;9519;51.890;8.970;2022-12-29T01:00:06;97941.00;;;9.70
18782;BMP180;9519;51.890;8.970;2022-12-29T01:05:08;97944.00;;;9.80
18782;BMP180;9519;51.890;8.970;2022-12-29T01:10:10;97924.00;;;9.80
18782;BMP180;9519;51.890;8.970;2022-12-29T01:15:15;97816.00;;;9.80
18782;BMP180;9519;51.890;8.970;2022-12-29T01:20:18;97923.00;;;9.90
18782;BMP180;9519;51.890;8.970;2022-12-29T01:25:20;97919.00;;;9.90
18782;BMP180;9519;51.890;8.970;2022-12-29T01:30:24;97925.00;;;10.00
18782;BMP180;9519;51.890;8.970;2022-12-29T01:35:26;97893.00;;;10.00
18782;BMP180;9519;51.890;8.970;2022-12-29T01:40:28;97896.00;;;10.00
18782;BMP180;9519;51.890;8.970;2022-12-29T01:45:31;97887.00;;;10.00
18782;BMP180;9519;51.890;8.970;2022-12-29T01:50:38;97882.00;;;10.00
18782;BMP180;9519;51.890;8.970;2022-12-29T01:55:46;97879.00;;;10.00
18782;BMP180;9519;51.890;8.970;2022-12-29T02:00:51;97876.00;;;10.00
18782;BMP180;9519;51.890;8.970;2022-12-29T02:05:58;97883.00;;;10.10
18782;BMP180;9519;51.890;8.970;2022-12-29T02:11:03;97870.00;;;10.10
18782;BMP180;9519;51.890;8.970;2022-12-29T02:16:29;97884.00;;;10.20
18782;BMP180;9519;51.890;8.970;2022-12-29T02:21:59;97873.00;;;10.30
18782;BMP180;9519;51.890;8.970;2022-12-29T02:27:48;97870.00;;;10.30
18782;BMP180;9519;51.890;8.970;2022-12-29T02:33:03;97871.00;;;10.40
18782;BMP180;9519;51.890;8.970;2022-12-29T02:38:21;97868.00;;;10.40
18782;BMP180;9519;51.890;8.970;2022-12-29T02:43:36;97866.00;;;10.50
18782;BMP180;9519;51.890;8.970;2022-12-29T02:48:46;97848.00;;;10.60
18782;BMP180;9519;51.890;8.970;2022-12-29T02:53:54;97868.00;;;10.60
18782;BMP180;9519;51.890;8.970;2022-12-29T02:59:14;97849.00;;;10.40
18782;BMP180;9519;51.890;8.970;2022-12-29T03:04:31;97841.00;;;10.30
18782;BMP180;9519;51.890;8.970;2022-12-29T03:09:43;97820.00;;;10.20
18782;BMP180;9519;51.890;8.970;2022-12-29T03:14:59;97816.00;;;10.20
18782;BMP180;9519;51.890;8.970;2022-12-29T03:20:27;97818.00;;;10.20
18782;BMP180;9519;51.890;8.970;2022-12-29T03:25:39;97807.00;;;10.20
18782;BMP180;9519;51.890;8.970;2022-12-29T03:30:43;97786.00;;;10.30
18782;BMP180;9519;51.890;8.970;2022-12-29T03:35:51;97797.00;;;10.30
18782;BMP180;9519;51.890;8.970;2022-12-29T03:40:58;97795.00;;;10.40
18782;BMP180;9519;51.890;8.970;2022-12-29T03:46:01;97820.00;;;10.40
18782;BMP180;9519;51.890;8.970;2022-12-29T03:51:05;97792.00;;;10.50
18782;BMP180;9519;51.890;8.970;2022-12-29T03:56:07;97810.00;;;10.50
18782;BMP180;9519;51.890;8.970;2022-12-29T04:01:09;97800.00;;;10.60
18782;BMP180;9519;51.890;8.970;2022-12-29T04:06:13;97796.00;;;10.60
18782;BMP180;9519;51.890;8.970;2022-12-29T04:11:15;97794.00;;;10.60
18782;BMP180;9519;51.890;8.970;2022-12-29T04:16:17;97804.00;;;10.60
18782;BMP180;9519;51.890;8.970;2022-12-29T04:21:20;97803.00;;;10.70
18782;BMP180;9519;51.890;8.970;2022-12-29T04:26:22;97800.00;;;10.70
18782;BMP180;9519;51.890;8.970;2022-12-29T04:31:24;97816.00;;;10.70
18782;BMP180;9519;51.890;8.970;2022-12-29T04:36:27;97808.00;;;10.70
18782;BMP180;9519;51.890;8.970;2022-12-29T04:41:29;97797.00;;;10.60
18782;BMP180;9519;51.890;8.970;2022-12-29T04:46:31;97807.00;;;10.40
18782;BMP180;9519;51.890;8.970;2022-12-29T04:51:35;97809.00;;;10.40
18782;BMP180;9519;51.890;8.970;2022-12-29T04:56:37;97812.00;;;10.40
18782;BMP180;9519;51.890;8.970;2022-12-29T05:01:39;97810.00;;;10.40
18782;BMP180;9519;51.890;8.970;2022-12-29T05:06:42;97801.00;;;10.40
18782;BMP180;9519;51.890;8.970;2022-12-29T05:11:44;97802.00;;;10.40
18782;BMP180;9519;51.890;8.970;2022-12-29T05:16:46;97807.00;;;10.40
18782;BMP180;9519;51.890;8.970;2022-12-29T05:21:50;97802.00;;;10.40
18782;BMP180;9519;51.890;8.970;2022-12-29T05:26:52;97795.00;;;10.40
18782;BMP180;9519;51.890;8.970;2022-12-29T05:31:54;97797.00;;;10.50
18782;BMP180;9519;51.890;8.970;2022-12-29T05:36:57;97777.00;;;10.50
18782;BMP180;9519;51.890;8.970;2022-12-29T05:41:59;97793.00;;;10.60
18782;BMP180;9519;51.890;8.970;2022-12-29T05:47:02;97785.00;;;10.60
18782;BMP180;9519;51.890;8.970;2022-12-29T05:52:05;97770.00;;;10.60
18782;BMP180;9519;51.890;8.970;2022-12-29T05:57:10;97769.00;;;10.70
18782;BMP180;9519;51.890;8.970;2022-12-29T06:02:12;97772.00;;;10.70
18782;BMP180;9519;51.890;8.970;2022-12-29T06:07:17;97778.00;;;10.80
18782;BMP180;9519;51.890;8.970;2022-12-29T06:12:19;97751.00;;;10.80
18782;BMP180;9519;51.890;8.970;2022-12-29T06:17:21;97762.00;;;10.80
18782;BMP180;9519;51.890;8.970;2022-12-29T06:22:24;97766.00;;;10.80
18782;BMP180;9519;51.890;8.970;2022-12-29T06:27:26;97783.00;;;10.90
18782;BMP180;9519;51.890;8.970;2022-12-29T06:32:28;97794.00;;;10.90
18782;BMP180;9519;51.890;8.970;2022-12-29T06:37:32;97792.00;;;10.90
18782;BMP180;9519;51.890;8.970;2022-12-29T06:42:34;97820.00;;;10.90
18782;BMP180;9519;51.890;8.970;2022-12-29T06:47:36;97831.00;;;11.00
18782;BMP180;9519;51.890;8.970;2022-12-29T06:52:40;97824.00;;;11.00
18782;BMP180;9519;51.890;8.970;2022-12-29T06:57:42;97833.00;;;10.90
18782;BMP180;9519;51.890;8.970;2022-12-29T07:02:44;97823.00;;;10.80
18782;BMP180;9519;51.890;8.970;2022-12-29T07:07:47;97818.00;;;10.80
18782;BMP180;9519;51.890;8.970;2022-12-29T07:12:50;97834.00;;;10.70
18782;BMP180;9519;51.890;8.970;2022-12-29T07:17:52;97844.00;;;10.70
18782;BMP180;9519;51.890;8.970;2022-12-29T07:22:55;97832.00;;;10.80
18782;BMP180;9519;51.890;8.970;2022-12-29T07:27:57;97829.00;;;10.80
18782;BMP180;9519;51.890;8.970;2022-12-29T07:32:59;97841.00;;;10.80
18782;BMP180;9519;51.890;8.970;2022-12-29T07:38:03;97846.00;;;10.90
18782;BMP180;9519;51.890;8.970;2022-12-29T07:43:05;97846.00;;;10.90
18782;BMP180;9519;51.890;8.970;2022-12-29T07:48:09;97845.00;;;10.90
18782;BMP180;9519;51.890;8.970;2022-12-29T07:53:13;97860.00;;;10.90
18782;BMP180;9519;51.890;8.970;2022-12-29T07:58:15;97867.00;;;10.90
18782;BMP180;9519;51.890;8.970;2022-12-29T08:03:17;97880.00;;;10.90
18782;BMP180;9519;51.890;8.970;2022-12-29T08:08:20;97876.00;;;10.80
18782;BMP180;9519;51.890;8.970;2022-12-29T08:13:22;97892.00;;;10.70
18782;BMP180;9519;51.890;8.970;2022-12-29T08:18:25;97909.00;;;10.50
18782;BMP180;9519;51.890;8.970;2022-12-29T08:23:28;97901.00;;;10.40
18782;BMP180;9519;51.890;8.970;2022-12-29T08:28:31;97896.00;;;10.30
18782;BMP180;9519;51.890;8.970;2022-12-29T08:33:33;97925.00;;;10.20
18782;BMP180;9519;51.890;8.970;2022-12-29T08:38:36;97911.00;;;10.10
18782;BMP180;9519;51.890;8.970;2022-12-29T08:43:38;97924.00;;;10.10
18782;BMP180;9519;51.890;8.970;2022-12-29T08:48:40;97914.00;;;10.10
18782;BMP180;9519;51.890;8.970;2022-12-29T08:53:44;97912.00;;;10.10
18782;BMP180;9519;51.890;8.970;2022-12-29T08:58:46;97916.00;;;10.10
18782;BMP180;9519;51.890;8.970;2022-12-29T09:03:48;97922.00;;;10.00
18782;BMP180;9519;51.890;8.970;2022-12-29T09:08:53;97927.00;;;10.00
18782;BMP180;9519;51.890;8.970;2022-12-29T09:13:56;97925.00;;;9.90
18782;BMP180;9519;51.890;8.970;2022-12-29T09:18:58;97925.00;;;9.90
18782;BMP180;9519;51.890;8.970;2022-12-29T09:24:01;97894.00;;;9.90
18782;BMP180;9519;51.890;8.970;2022-12-29T09:29:03;97919.00;;;9.90
18782;BMP180;9519;51.890;8.970;2022-12-29T09:34:05;97921.00;;;10.00
18782;BMP180;9519;51.890;8.970;2022-12-29T09:39:09;97932.00;;;10.00
18782;BMP180;9519;51.890;8.970;2022-12-29T09:44:20;97951.00;;;10.10
18782;BMP180;9519;51.890;8.970;2022-12-29T09:49:31;97945.00;;;10.10
18782;BMP180;9519;51.890;8.970;2022-12-29T09:54:50;97962.00;;;10.20
18782;BMP180;9519;51.890;8.970;2022-12-29T09:59:58;97949.00;;;10.20
18782;BMP180;9519;51.890;8.970;2022-12-29T10:05:01;97914.00;;;10.20
18782;BMP180;9519;51.890;8.970;2022-12-29T10:10:20;97957.00;;;10.20
18782;BMP180;9519;51.890;8.970;2022-12-29T10:15:40;97947.00;;;10.30
18782;BMP180;9519;51.890;8.970;2022-12-29T10:20:52;97957.00;;;10.40
18782;BMP180;9519;51.890;8.970;2022-12-29T10:25:59;97954.00;;;10.40
18782;BMP180;9519;51.890;8.970;2022-12-29T10:31:09;97974.00;;;10.30
18782;BMP180;9519;51.890;8.970;2022-12-29T10:36:20;97966.00;;;10.20
18782;BMP180;9519;51.890;8.970;2022-12-29T10:41:31;97945.00;;;10.10
18782;BMP180;9519;51.890;8.970;2022-12-29T10:46:37;97933.00;;;10.10
18782;BMP180;9519;51.890;8.970;2022-12-29T10:51:42;97950.00;;;10.00
18782;BMP180;9519;51.890;8.970;2022-12-29T10:56:52;97945.00;;;9.90
18782;BMP180;9519;51.890;8.970;2022-12-29T11:02:06;97950.00;;;9.90
18782;BMP180;9519;51.890;8.970;2022-12-29T11:07:18;97946.00;;;9.90
18782;BMP180;9519;51.890;8.970;2022-12-29T11:12:25;97961.00;;;10.00
18782;BMP180;9519;51.890;8.970;2022-12-29T11:17:28;97893.00;;;10.00
18782;BMP180;9519;51.890;8.970;2022-12-29T11:22:30;97947.00;;;10.10
18782;BMP180;9519;51.890;8.970;2022-12-29T11:27:33;97935.00;;;10.10
18782;BMP180;9519;51.890;8.970;2022-12-29T11:32:36;97948.00;;;10.10
18782;BMP180;9519;51.890;8.970;2022-12-29T11:37:57;97930.00;;;10.10
18782;BMP180;9519;51.890;8.970;2022-12-29T11:43:03;97956.00;;;10.10
18782;BMP180;9519;51.890;8.970;2022-12-29T11:48:09;97963.00;;;10.10
18782;BMP180;9519;51.890;8.970;2022-12-29T11:53:21;97970.00;;;10.20
18782;BMP180;9519;51.890;8.970;2022-12-29T11:58:31;97969.00;;;10.20
18782;BMP180;9519;51.890;8.970;2022-12-29T12:03:40;97981.00;;;10.20
18782;BMP180;9519;51.890;8.970;2022-12-29T12:08:53;97978.00;;;10.20
18782;BMP180;9519;51.890;8.970;2022-12-29T12:14:01;97980.00;;;10.20
18782;BMP180;9519;51.890;8.970;2022-12-29T12:19:15;97979.00;;;10.20
18782;BMP180;9519;51.890;8.970;2022-12-29T12:24:38;97964.00;;;10.20
18782;BMP180;9519;51.890;8.970;2022-12-29T12:29:55;97988.00;;;10.20
18782;BMP180;9519;51.890;8.970;2022-12-29T12:34:59;97975.00;;;10.20
18782;BMP180;9519;51.890;8.970;2022-12-29T12:40:21;97986.00;;;10.20
18782;BMP180;9519;51.890;8.970;2022-12-29T12:45:49;98022.00;;;10.20
18782;BMP180;9519;51.890;8.970;2022-12-29T12:51:04;97978.00;;;10.20
18782;BMP180;9519;51.890;8.970;2022-12-29T12:56:37;97980.00;;;10.20
18782;BMP180;9519;51.890;8.970;2022-12-29T13:01:54;97979.00;;;10.10
18782;BMP180;9519;51.890;8.970;2022-12-29T13:07:12;97986.00;;;10.10
18782;BMP180;9519;51.890;8.970;2022-12-29T13:12:32;97998.00;;;10.10
18782;BMP180;9519;51.890;8.970;2022-12-29T13:17:47;98009.00;;;10.10
18782;BMP180;9519;51.890;8.970;2022-12-29T13:22:59;97980.00;;;10.10
18782;BMP180;9519;51.890;8.970;2022-12-29T13:28:14;97940.00;;;10.10
18782;BMP180;9519;51.890;8.970;2022-12-29T13:33:32;98005.00;;;10.10
18782;BMP180;9519;51.890;8.970;2022-12-29T13:38:44;98004.00;;;10.10
18782;BMP180;9519;51.890;8.970;2022-12-29T13:43:50;98008.00;;;10.00
18782;BMP180;9519;51.890;8.970;2022-12-29T13:48:59;98043.00;;;10.00
18782;BMP180;9519;51.890;8.970;2022-12-29T13:54:21;98035.00;;;10.00
18782;BMP180;9519;51.890;8.970;2022-12-29T13:59:40;98030.00;;;10.00
18782;BMP180;9519;51.890;8.970;2022-12-29T14:04:59;98061.00;;;10.00
18782;BMP180;9519;51.890;8.970;2022-12-29T14:10:04;98057.00;;;10.00
18782;BMP180;9519;51.890;8.970;2022-12-29T14:15:22;98069.00;;;9.90
18782;BMP180;9519;51.890;8.970;2022-12-29T14:20:26;98069.00;;;9.90
18782;BMP180;9519;51.890;8.970;2022-12-29T14:25:57;98086.00;;;9.80
18782;BMP180;9519;51.890;8.970;2022-12-29T14:31:00;98093.00;;;9.80
18782;BMP180;9519;51.890;8.970;2022-12-29T14:36:25;98095.00;;;9.80
18782;BMP180;9519;51.890;8.970;2022-12-29T14:41:33;98102.00;;;9.80
18782;BMP180;9519;51.890;8.970;2022-12-29T14:47:00;98143.00;;;9.70
18782;BMP180;9519;51.890;8.970;2022-12-29T14:52:17;98112.00;;;9.70
18782;BMP180;9519;51.890;8.970;2022-12-29T14:57:35;98140.00;;;9.70
18782;BMP180;9519;51.890;8.970;2022-12-29T15:02:42;98134.00;;;9.70
18782;BMP180;9519;51.890;8.970;2022-12-29T15:07:48;98141.00;;;9.60
18782;BMP180;9519;51.890;8.970;2022-12-29T15:12:53;98152.00;;;9.60
18782;BMP180;9519;51.890;8.970;2022-12-29T15:17:56;98155.00;;;9.60
18782;BMP180;9519;51.890;8.970;2022-12-29T15:23:08;98166.00;;;9.50
18782;BMP180;9519;51.890;8.970;2022-12-29T15:28:12;98167.00;;;9.50
18782;BMP180;9519;51.890;8.970;2022-12-29T15:33:20;98177.00;;;9.40
18782;BMP180;9519;51.890;8.970;2022-12-29T15:38:27;98184.00;;;9.40
18782;BMP180;9519;51.890;8.970;2022-12-29T15:43:47;98194.00;;;9.40
18782;BMP180;9519;51.890;8.970;2022-12-29T15:48:51;98200.00;;;9.40
18782;BMP180;9519;51.890;8.970;2022-12-29T15:53:55;98194.00;;;9.30
18782;BMP180;9519;51.890;8.970;2022-12-29T15:58:58;98212.00;;;9.20
18782;BMP180;9519;51.890;8.970;2022-12-29T16:04:04;98216.00;;;9.30
18782;BMP180;9519;51.890;8.970;2022-12-29T16:09:19;98205.00;;;9.30
18782;BMP180;9519;51.890;8.970;2022-12-29T16:14:34;98207.00;;;9.30
18782;BMP180;9519;51.890;8.970;2022-12-29T16:19:41;98199.00;;;9.30
18782;BMP180;9519;51.890;8.970;2022-12-29T16:24:46;98205.00;;;9.30
18782;BMP180;9519;51.890;8.970;2022-12-29T16:29:53;98212.00;;;9.30
18782;BMP180;9519;51.890;8.970;2022-12-29T16:35:12;98199.00;;;9.30
18782;BMP180;9519;51.890;8.970;2022-12-29T16:40:28;98207.00;;;9.30
18782;BMP180;9519;51.890;8.970;2022-12-29T16:51:32;98213.00;;;9.30
18782;BMP180;9519;51.890;8.970;2022-12-29T16:56:37;98207.00;;;9.30
18782;BMP180;9519;51.890;8.970;2022-12-29T17:01:44;98207.00;;;9.30
18782;BMP180;9519;51.890;8.970;2022-12-29T17:06:47;98196.00;;;9.30
18782;BMP180;9519;51.890;8.970;2022-12-29T17:11:53;98179.00;;;9.30
18782;BMP180;9519;51.890;8.970;2022-12-29T17:16:56;98174.00;;;9.30
18782;BMP180;9519;51.890;8.970;2022-12-29T17:21:59;98180.00;;;9.30
18782;BMP180;9519;51.890;8.970;2022-12-29T17:27:03;98178.00;;;9.30
18782;BMP180;9519;51.890;8.970;2022-12-29T17:32:12;98178.00;;;9.30
18782;BMP180;9519;51.890;8.970;2022-12-29T17:37:36;98193.00;;;9.30
18782;BMP180;9519;51.890;8.970;2022-12-29T17:42:43;98190.00;;;9.30
18782;BMP180;9519;51.890;8.970;2022-12-29T17:47:46;98195.00;;;9.30
18782;BMP180;9519;51.890;8.970;2022-12-29T17:52:52;98166.00;;;9.30
18782;BMP180;9519;51.890;8.970;2022-12-29T17:57:56;98180.00;;;9.30
18782;BMP180;9519;51.890;8.970;2022-12-29T18:02:58;98186.00;;;9.20
18782;BMP180;9519;51.890;8.970;2022-12-29T18:08:00;98193.00;;;9.20
18782;BMP180;9519;51.890;8.970;2022-12-29T18:13:04;98206.00;;;9.20
18782;BMP180;9519;51.890;8.970;2022-12-29T18:18:12;98211.00;;;9.20
18782;BMP180;9519;51.890;8.970;2022-12-29T18:23:20;98248.00;;;9.20
18782;BMP180;9519;51.890;8.970;2022-12-29T18:28:24;98234.00;;;9.10
18782;BMP180;9519;51.890;8.970;2022-12-29T18:33:28;98236.00;;;9.10
18782;BMP180;9519;51.890;8.970;2022-12-29T18:38:31;98260.00;;;9.10
18782;BMP180;9519;51.890;8.970;2022-12-29T18:43:34;98256.00;;;9.00
18782;BMP180;9519;51.890;8.970;2022-12-29T18:48:36;98266.00;;;9.00
18782;BMP180;9519;51.890;8.970;2022-12-29T18:53:38;98244.00;;;9.00
18782;BMP180;9519;51.890;8.970;2022-12-29T18:58:42;98247.00;;;8.90
18782;BMP180;9519;51.890;8.970;2022-12-29T19:03:44;98248.00;;;8.80
18782;BMP180;9519;51.890;8.970;2022-12-29T19:08:46;98265.00;;;8.80
18782;BMP180;9519;51.890;8.970;2022-12-29T19:13:49;98290.00;;;8.60
18782;BMP180;9519;51.890;8.970;2022-12-29T19:18:52;98199.00;;;8.10
18782;BMP180;9519;51.890;8.970;2022-12-29T19:23:54;98248.00;;;7.70
18782;BMP180;9519;51.890;8.970;2022-12-29T19:28:59;98231.00;;;7.40
18782;BMP180;9519;51.890;8.970;2022-12-29T19:34:01;98235.00;;;7.10
18782;BMP180;9519;51.890;8.970;2022-12-29T19:39:03;98198.00;;;6.90
18782;BMP180;9519;51.890;8.970;2022-12-29T19:44:07;98220.00;;;6.80
18782;BMP180;9519;51.890;8.970;2022-12-29T19:49:09;98213.00;;;6.60
18782;BMP180;9519;51.890;8.970;2022-12-29T19:54:12;98203.00;;;6.50
18782;BMP180;9519;51.890;8.970;2022-12-29T19:59:15;98177.00;;;6.30
18782;BMP180;9519;51.890;8.970;2022-12-29T20:04:17;98208.00;;;6.30
18782;BMP180;9519;51.890;8.970;2022-12-29T20:09:19;98147.00;;;6.20
18782;BMP180;9519;51.890;8.970;2022-12-29T20:14:29;98170.00;;;6.20
18782;BMP180;9519;51.890;8.970;2022-12-29T20:19:32;98242.00;;;6.20
18782;BMP180;9519;51.890;8.970;2022-12-29T20:24:37;98159.00;;;6.20
18782;BMP180;9519;51.890;8.970;2022-12-29T20:29:44;98223.00;;;6.20
18782;BMP180;9519;51.890;8.970;2022-12-29T20:34:46;98152.00;;;6.30
18782;BMP180;9519;51.890;8.970;2022-12-29T20:39:48;98211.00;;;6.30
18782;BMP180;9519;51.890;8.970;2022-12-29T20:44:52;98220.00;;;6.30
18782;BMP180;9519;51.890;8.970;2022-12-29T20:49:54;98184.00;;;6.30
18782;BMP180;9519;51.890;8.970;2022-12-29T20:54:56;98206.00;;;6.30
18782;BMP180;9519;51.890;8.970;2022-12-29T20:59:59;98229.00;;;6.30
18782;BMP180;9519;51.890;8.970;2022-12-29T21:05:01;98227.00;;;6.30
18782;BMP180;9519;51.890;8.970;2022-12-29T21:10:04;98235.00;;;6.30
18782;BMP180;9519;51.890;8.970;2022-12-29T21:15:10;98141.00;;;6.30
18782;BMP180;9519;51.890;8.970;2022-12-29T21:20:14;98230.00;;;6.30
18782;BMP180;9519;51.890;8.970;2022-12-29T21:25:31;98233.00;;;6.30
18782;BMP180;9519;51.890;8.970;2022-12-29T21:30:39;98232.00;;;6.30
18782;BMP180;9519;51.890;8.970;2022-12-29T21:35:42;98230.00;;;6.30
18782;BMP180;9519;51.890;8.970;2022-12-29T21:40:44;98235.00;;;6.20
18782;BMP180;9519;51.890;8.970;2022-12-29T21:45:50;98243.00;;;6.30
18782;BMP180;9519;51.890;8.970;2022-12-29T21:50:54;98305.00;;;6.30
18782;BMP180;9519;51.890;8.970;2022-12-29T21:56:17;98283.00;;;6.40
18782;BMP180;9519;51.890;8.970;2022-12-29T22:01:21;98297.00;;;6.40
18782;BMP180;9519;51.890;8.970;2022-12-29T22:06:40;98238.00;;;6.40
18782;BMP180;9519;51.890;8.970;2022-12-29T22:12:00;98279.00;;;6.40
18782;BMP180;9519;51.890;8.970;2022-12-29T22:17:21;98268.00;;;6.40
18782;BMP180;9519;51.890;8.970;2022-12-29T22:22:23;98296.00;;;6.50
18782;BMP180;9519;51.890;8.970;2022-12-29T22:27:25;98264.00;;;6.50
18782;BMP180;9519;51.890;8.970;2022-12-29T22:32:32;98292.00;;;6.50
18782;BMP180;9519;51.890;8.970;2022-12-29T22:37:38;98317.00;;;6.50
18782;BMP180;9519;51.890;8.970;2022-12-29T22:42:41;98297.00;;;6.50
18782;BMP180;9519;51.890;8.970;2022-12-29T22:47:46;98293.00;;;6.40
18782;BMP180;9519;51.890;8.970;2022-12-29T22:52:48;98292.00;;;6.40
18782;BMP180;9519;51.890;8.970;2022-12-29T22:57:51;98233.00;;;6.40
18782;BMP180;9519;51.890;8.970;2022-12-29T23:02:54;98247.00;;;6.40
18782;BMP180;9519;51.890;8.970;2022-12-29T23:07:56;98270.00;;;6.40
18782;BMP180;9519;51.890;8.970;2022-12-29T23:12:58;98335.00;;;6.40
18782;BMP180;9519;51.890;8.970;2022-12-29T23:18:02;98286.00;;;6.40
18782;BMP180;9519;51.890;8.970;2022-12-29T23:23:04;98345.00;;;6.50
18782;BMP180;9519;51.890;8.970;2022-12-29T23:28:07;98341.00;;;6.50
18782;BMP180;9519;51.890;8.970;2022-12-29T23:33:11;98361.00;;;6.50
18782;BMP180;9519;51.890;8.970;2022-12-29T23:38:13;98377.00;;;6.50
18782;BMP180;9519;51.890;8.970;2022-12-29T23:43:15;98386.00;;;6.50
18782;BMP180;9519;51.890;8.970;2022-12-29T23:48:19;98383.00;;;6.50
18782;BMP180;9519;51.890;8.970;2022-12-29T23:53:21;98414.00;;;6.50
18782;BMP180;9519;51.890;8.970;2022-12-29T23:58:23;98405.00;;;6.50
